Time,TemperatureF,DewpointF,PressureIn,WindDirection,WindDirectionDegrees,WindSpeedMPH,WindSpeedGustMPH,Humidity,HourlyPrecipIn,Conditions,Clouds,dailyrainin,SoftwareType,DateUTC
2013-04-15 00:02:00,26.5,24.5,29.68,East,80,4.0,12.0,92,0.01,,---,0.00,VWS V14.01,2013-04-15 05:02:00,
2013-04-15 00:07:00,26.5,24.5,29.68,SE,134,6.0,13.0,92,0.01,,---,0.00,VWS V14.01,2013-04-15 05:07:00,
2013-04-15 00:12:00,26.5,24.5,29.68,ESE,123,4.0,13.0,92,0.01,,---,0.00,VWS V14.01,2013-04-15 05:12:00,
2013-04-15 00:17:00,26.5,24.5,29.67,ENE,62,12.0,18.0,92,0.01,,---,0.00,VWS V14.01,2013-04-15 05:17:00,
2013-04-15 00:22:00,26.6,24.6,29.67,ESE,103,6.0,18.0,92,0.01,,---,0.00,VWS V14.01,2013-04-15 05:22:00,
2013-04-15 00:28:00,26.6,24.6,29.67,NE,46,3.0,18.0,92,0.01,,---,0.00,VWS V14.01,2013-04-15 05:28:00,
2013-04-15 00:33:00,26.6,24.6,29.66,NE,53,6.0,7.0,92,0.01,,---,0.00,VWS V14.01,2013-04-15 05:33:00,
2013-04-15 00:38:00,26.7,25.0,29.66,East,84,4.0,12.0,93,0.01,,---,0.00,VWS V14.01,2013-04-15 05:38:00,
2013-04-15 00:43:00,26.7,24.7,29.66,ENE,69,3.0,12.0,92,0.01,,---,0.00,VWS V14.01,2013-04-15 05:43:00,
2013-04-15 00:48:00,26.9,24.9,29.66,ENE,62,7.0,12.0,92,0.02,,---,0.01,VWS V14.01,2013-04-15 05:48:00,
2013-04-15 00:53:00,26.9,25.1,29.66,ENE,65,7.0,14.0,93,0.02,,---,0.01,VWS V14.01,2013-04-15 05:53:00,
2013-04-15 00:58:00,27.0,25.2,29.66,ENE,72,2.0,14.0,93,0.02,,---,0.01,VWS V14.01,2013-04-15 05:58:00,
2013-04-15 01:03:00,27.0,25.2,29.65,East,98,10.0,12.0,93,0.01,,---,0.01,VWS V14.01,2013-04-15 06:03:00,
2013-04-15 01:08:00,27.0,25.2,29.65,ESE,110,2.0,12.0,93,0.01,,---,0.01,VWS V14.01,2013-04-15 06:08:00,
2013-04-15 01:13:00,27.1,25.4,29.65,East,81,7.0,12.0,93,0.01,,---,0.01,VWS V14.01,2013-04-15 06:13:00,
2013-04-15 01:18:00,27.1,25.4,29.65,East,81,6.0,13.0,93,0.01,,---,0.01,VWS V14.01,2013-04-15 06:18:00,
2013-04-15 01:23:00,27.2,25.5,29.65,ENE,71,5.0,13.0,93,0.01,,---,0.01,VWS V14.01,2013-04-15 06:23:00,
2013-04-15 01:28:00,27.2,25.5,29.65,NE,42,3.0,14.0,93,0.01,,---,0.01,VWS V14.01,2013-04-15 06:28:00,
2013-04-15 01:34:00,27.2,25.5,29.64,ESE,102,5.0,14.0,93,0.01,,---,0.01,VWS V14.01,2013-04-15 06:34:00,
2013-04-15 01:39:00,27.3,25.5,29.64,East,95,3.0,14.0,93,0.01,,---,0.01,VWS V14.01,2013-04-15 06:39:00,
2013-04-15 01:44:00,27.4,25.6,29.64,ENE,78,10.0,15.0,93,0.01,,---,0.01,VWS V14.01,2013-04-15 06:44:00,
2013-04-15 01:49:00,27.4,25.6,29.62,ENE,76,6.0,15.0,93,0.01,,---,0.01,VWS V14.01,2013-04-15 06:49:00,
2013-04-15 01:54:00,27.5,25.8,29.62,North,355,5.0,17.0,93,0.01,,---,0.01,VWS V14.01,2013-04-15 06:54:00,
2013-04-15 01:59:00,27.6,25.8,29.62,East,88,13.0,17.0,93,0.01,,---,0.01,VWS V14.01,2013-04-15 06:59:00,
2013-04-15 02:04:00,27.7,25.9,29.61,ENE,59,6.0,15.0,93,0.00,,---,0.01,VWS V14.01,2013-04-15 07:04:00,
2013-04-15 02:41:00,27.9,26.1,29.58,East,90,3.0,20.0,93,0.00,,---,0.01,VWS V14.01,2013-04-15 07:41:00,
2013-04-15 02:43:00,27.9,26.4,29.58,ENE,73,9.0,20.0,94,0.00,,---,0.01,VWS V14.01,2013-04-15 07:43:00,
2013-04-15 02:48:00,27.9,26.4,29.57,East,92,5.0,20.0,94,0.01,,---,0.02,VWS V14.01,2013-04-15 07:48:00,
2013-04-15 02:54:00,28.0,26.5,29.57,East,94,4.0,20.0,94,0.01,,---,0.02,VWS V14.01,2013-04-15 07:54:00,
2013-04-15 02:59:00,28.0,26.5,29.57,ENE,76,5.0,20.0,94,0.01,,---,0.02,VWS V14.01,2013-04-15 07:59:00,
2013-04-15 03:04:00,28.0,26.5,29.55,East,88,8.0,19.0,94,0.01,,---,0.02,VWS V14.01,2013-04-15 08:04:00,
2013-04-15 03:09:00,28.1,26.6,29.55,NE,51,9.0,19.0,94,0.01,,---,0.02,VWS V14.01,2013-04-15 08:09:00,
2013-04-15 03:14:00,28.1,26.6,29.55,ENE,61,4.0,19.0,94,0.01,,---,0.02,VWS V14.01,2013-04-15 08:14:00,
2013-04-15 03:20:00,28.1,26.6,29.54,ENE,71,10.0,19.0,94,0.01,,---,0.02,VWS V14.01,2013-04-15 08:20:00,
2013-04-15 03:25:00,28.1,26.6,29.54,SE,128,6.0,25.0,94,0.01,,---,0.02,VWS V14.01,2013-04-15 08:25:00,
2013-04-15 03:30:00,28.1,26.6,29.53,ENE,66,11.0,25.0,94,0.01,,---,0.02,VWS V14.01,2013-04-15 08:30:00,
2013-04-15 03:35:00,28.1,26.6,29.53,NNE,31,12.0,16.0,94,0.01,,---,0.02,VWS V14.01,2013-04-15 08:35:00,
2013-04-15 03:40:00,28.2,26.7,29.53,ESE,113,5.0,18.0,94,0.01,,---,0.02,VWS V14.01,2013-04-15 08:40:00,
2013-04-15 03:41:00,28.2,26.7,29.53,SE,127,6.0,18.0,94,0.01,,---,0.02,VWS V14.01,2013-04-15 08:41:00,
2013-04-15 03:44:00,28.2,26.7,29.53,SE,124,6.0,18.0,94,0.01,,---,0.02,VWS V14.01,2013-04-15 08:44:00,
2013-04-15 03:49:00,28.3,26.8,29.54,ENE,61,3.0,18.0,94,0.01,,---,0.02,VWS V14.01,2013-04-15 08:49:00,
2013-04-15 03:54:00,28.2,26.7,29.54,East,95,15.0,18.0,94,0.01,,---,0.02,VWS V14.01,2013-04-15 08:54:00,
2013-04-15 03:59:00,28.2,26.7,29.54,East,80,4.0,20.0,94,0.01,,---,0.02,VWS V14.01,2013-04-15 08:59:00,
2013-04-15 04:04:00,28.2,26.7,29.52,SE,126,6.0,15.0,94,0.00,,---,0.02,VWS V14.01,2013-04-15 09:04:00,
2013-04-15 04:09:00,28.2,26.7,29.52,ESE,102,4.0,15.0,94,0.00,,---,0.02,VWS V14.01,2013-04-15 09:09:00,
2013-04-15 04:15:00,28.2,26.7,29.52,NE,47,6.0,18.0,94,0.01,,---,0.03,VWS V14.01,2013-04-15 09:15:00,
2013-04-15 04:20:00,28.2,26.7,29.52,SE,126,14.0,18.0,94,0.01,,---,0.03,VWS V14.01,2013-04-15 09:20:00,
2013-04-15 04:25:00,28.2,26.7,29.52,SE,140,6.0,20.0,94,0.01,,---,0.03,VWS V14.01,2013-04-15 09:25:00,
2013-04-15 04:30:00,28.2,26.7,29.51,ESE,116,18.0,20.0,94,0.01,,---,0.03,VWS V14.01,2013-04-15 09:30:00,
2013-04-15 04:35:00,28.1,26.6,29.51,ENE,76,2.0,23.0,94,0.01,,---,0.03,VWS V14.01,2013-04-15 09:35:00,
2013-04-15 04:40:00,28.1,26.6,29.51,ESE,119,19.0,23.0,94,0.01,,---,0.03,VWS V14.01,2013-04-15 09:40:00,
2013-04-15 04:45:00,28.1,26.6,29.50,ESE,122,19.0,23.0,94,0.01,,---,0.03,VWS V14.01,2013-04-15 09:45:00,
2013-04-15 04:50:00,28.1,26.6,29.50,ENE,68,6.0,23.0,94,0.01,,---,0.03,VWS V14.01,2013-04-15 09:50:00,
2013-04-15 04:55:00,28.1,26.6,29.50,ENE,62,10.0,23.0,94,0.01,,---,0.03,VWS V14.01,2013-04-15 09:55:00,
2013-04-15 05:00:00,28.1,26.6,29.50,ESE,114,6.0,23.0,94,0.01,,---,0.03,VWS V14.01,2013-04-15 10:00:00,
2013-04-15 05:06:00,28.1,26.6,29.50,SE,144,5.0,14.0,94,0.01,,---,0.03,VWS V14.01,2013-04-15 10:06:00,
2013-04-15 05:11:00,28.1,26.6,29.50,ESE,119,9.0,22.0,94,0.01,,---,0.03,VWS V14.01,2013-04-15 10:11:00,
2013-04-15 05:16:00,28.2,26.7,29.50,East,85,4.0,22.0,94,0.01,,---,0.03,VWS V14.01,2013-04-15 10:16:00,
2013-04-15 05:21:00,28.2,26.7,29.50,ESE,103,13.0,22.0,94,0.01,,---,0.03,VWS V14.01,2013-04-15 10:21:00,
2013-04-15 05:26:00,28.2,26.7,29.50,ENE,69,5.0,22.0,94,0.01,,---,0.03,VWS V14.01,2013-04-15 10:26:00,
2013-04-15 05:31:00,28.2,26.7,29.51,ENE,63,9.0,12.0,94,0.00,,---,0.03,VWS V14.01,2013-04-15 10:31:00,
2013-04-15 05:36:00,28.3,26.8,29.51,ENE,67,4.0,20.0,94,0.00,,---,0.03,VWS V14.01,2013-04-15 10:36:00,
2013-04-15 05:41:00,28.3,26.8,29.51,ENE,77,10.0,20.0,94,0.00,,---,0.03,VWS V14.01,2013-04-15 10:41:00,
2013-04-15 05:46:00,28.2,26.7,29.51,East,101,11.0,20.0,94,0.00,,---,0.03,VWS V14.01,2013-04-15 10:46:00,
2013-04-15 05:51:00,28.2,26.7,29.51,SE,133,6.0,20.0,94,0.00,,---,0.03,VWS V14.01,2013-04-15 10:51:00,
2013-04-15 05:56:00,28.1,26.6,29.51,ESE,112,14.0,20.0,94,0.00,,---,0.03,VWS V14.01,2013-04-15 10:56:00,
2013-04-15 06:02:00,28.1,26.6,29.52,East,86,6.0,18.0,94,0.00,,---,0.03,VWS V14.01,2013-04-15 11:02:00,
2013-04-15 06:07:00,28.1,26.6,29.52,SE,134,4.0,18.0,94,0.00,,---,0.03,VWS V14.01,2013-04-15 11:07:00,
2013-04-15 06:12:00,28.1,26.6,29.52,SE,126,10.0,18.0,94,0.00,,---,0.03,VWS V14.01,2013-04-15 11:12:00,
2013-04-15 06:17:00,28.1,26.6,29.51,ENE,78,5.0,18.0,94,0.00,,---,0.03,VWS V14.01,2013-04-15 11:17:00,
2013-04-15 06:22:00,28.1,26.6,29.51,East,92,11.0,18.0,94,0.00,,---,0.03,VWS V14.01,2013-04-15 11:22:00,
2013-04-15 06:27:00,28.1,26.6,29.51,East,95,4.0,18.0,94,0.00,,---,0.03,VWS V14.01,2013-04-15 11:27:00,
2013-04-15 06:32:00,28.1,26.6,29.49,East,101,3.0,10.0,94,0.00,,---,0.03,VWS V14.01,2013-04-15 11:32:00,
2013-04-15 06:37:00,28.0,26.5,29.49,SSW,194,6.0,15.0,94,0.00,,---,0.03,VWS V14.01,2013-04-15 11:37:00,
2013-04-15 06:42:00,28.1,26.6,29.49,East,101,4.0,15.0,94,0.00,,---,0.03,VWS V14.01,2013-04-15 11:42:00,
2013-04-15 06:48:00,28.1,26.6,29.50,East,100,6.0,15.0,94,0.00,,---,0.03,VWS V14.01,2013-04-15 11:48:00,
2013-04-15 06:53:00,28.1,26.6,29.50,ESE,112,5.0,15.0,94,0.00,,---,0.03,VWS V14.01,2013-04-15 11:53:00,
2013-04-15 06:58:00,28.1,26.6,29.50,NE,42,6.0,18.0,94,0.00,,---,0.03,VWS V14.01,2013-04-15 11:58:00,
2013-04-15 07:03:00,28.1,26.6,29.48,ESE,111,3.0,10.0,94,0.00,,---,0.03,VWS V14.01,2013-04-15 12:03:00,
2013-04-15 07:08:00,28.1,26.6,29.48,East,86,9.0,13.0,94,0.00,,---,0.03,VWS V14.01,2013-04-15 12:08:00,
2013-04-15 07:14:00,28.1,26.6,29.48,East,89,1.0,13.0,94,0.00,,---,0.03,VWS V14.01,2013-04-15 12:14:00,
2013-04-15 07:19:00,28.2,26.7,29.48,ESE,108,4.0,15.0,94,0.00,,---,0.03,VWS V14.01,2013-04-15 12:19:00,
2013-04-15 07:24:00,28.1,26.6,29.48,ESE,115,6.0,15.0,94,0.00,,---,0.03,VWS V14.01,2013-04-15 12:24:00,
2013-04-15 07:29:00,28.2,26.7,29.48,ESE,112,1.0,15.0,94,0.00,,---,0.03,VWS V14.01,2013-04-15 12:29:00,
2013-04-15 07:34:00,28.2,26.7,29.48,SE,127,4.0,11.0,94,0.00,,---,0.03,VWS V14.01,2013-04-15 12:34:00,
2013-04-15 07:40:00,28.3,26.8,29.48,ENE,61,2.0,11.0,94,0.00,,---,0.03,VWS V14.01,2013-04-15 12:40:00,
2013-04-15 07:45:00,28.3,26.8,29.48,ESE,105,1.0,11.0,94,0.00,,---,0.03,VWS V14.01,2013-04-15 12:45:00,
2013-04-15 07:50:00,28.4,26.9,29.48,ESE,103,5.0,11.0,94,0.00,,---,0.03,VWS V14.01,2013-04-15 12:50:00,
2013-04-15 07:55:00,28.5,27.0,29.48,East,100,2.0,11.0,94,0.00,,---,0.03,VWS V14.01,2013-04-15 12:55:00,
2013-04-15 08:01:00,28.5,27.0,29.48,ENE,68,3.0,11.0,94,0.00,,---,0.03,VWS V14.01,2013-04-15 13:01:00,
2013-04-15 08:06:00,28.6,27.1,29.48,SE,125,2.0,9.0,94,0.00,,---,0.03,VWS V14.01,2013-04-15 13:06:00,
2013-04-15 08:12:00,28.8,27.3,29.48,ENE,77,5.0,9.0,94,0.00,,---,0.03,VWS V14.01,2013-04-15 13:12:00,
2013-04-15 08:17:00,28.9,27.4,29.47,ENE,66,7.0,9.0,94,0.00,,---,0.03,VWS V14.01,2013-04-15 13:17:00,
2013-04-15 08:22:00,29.1,27.6,29.47,ENE,57,3.0,11.0,94,0.00,,---,0.03,VWS V14.01,2013-04-15 13:22:00,
2013-04-15 08:27:00,29.4,27.9,29.47,NE,52,1.0,11.0,94,0.00,,---,0.03,VWS V14.01,2013-04-15 13:27:00,
2013-04-15 08:32:00,29.5,28.0,29.47,East,95,2.0,6.0,94,0.00,,---,0.03,VWS V14.01,2013-04-15 13:32:00,
2013-04-15 08:37:00,29.6,28.1,29.47,ESE,117,10.0,10.0,94,0.00,,---,0.03,VWS V14.01,2013-04-15 13:37:00,
2013-04-15 08:43:00,29.7,28.2,29.47,NE,40,4.0,10.0,94,0.00,,---,0.03,VWS V14.01,2013-04-15 13:43:00,
2013-04-15 08:48:00,29.9,28.4,29.48,ENE,75,6.0,10.0,94,0.00,,---,0.03,VWS V14.01,2013-04-15 13:48:00,
2013-04-15 08:53:00,29.9,28.4,29.48,ESE,107,4.0,11.0,94,0.00,,---,0.03,VWS V14.01,2013-04-15 13:53:00,
2013-04-15 08:58:00,30.2,28.7,29.48,ENE,74,7.0,11.0,94,0.00,,---,0.03,VWS V14.01,2013-04-15 13:58:00,
2013-04-15 09:04:00,30.4,28.9,29.47,SE,139,1.0,10.0,94,0.00,,---,0.03,VWS V14.01,2013-04-15 14:04:00,
2013-04-15 09:09:00,30.6,29.1,29.47,SE,128,3.0,11.0,94,0.00,,---,0.03,VWS V14.01,2013-04-15 14:09:00,
2013-04-15 09:14:00,30.6,28.8,29.47,East,88,2.0,11.0,93,0.00,,---,0.03,VWS V14.01,2013-04-15 14:14:00,
2013-04-15 09:20:00,30.6,28.8,29.47,SE,134,4.0,11.0,93,0.00,,---,0.03,VWS V14.01,2013-04-15 14:20:00,
2013-04-15 09:25:00,30.7,28.9,29.47,East,86,9.0,11.0,93,0.00,,---,0.03,VWS V14.01,2013-04-15 14:25:00,
2013-04-15 09:30:00,30.9,29.1,29.46,SSE,153,6.0,11.0,93,0.00,,---,0.03,VWS V14.01,2013-04-15 14:30:00,
2013-04-15 09:35:00,30.9,29.4,29.46,ESE,117,5.0,9.0,94,0.00,,---,0.03,VWS V14.01,2013-04-15 14:35:00,
2013-04-15 09:41:00,30.9,29.1,29.46,SE,138,4.0,9.0,93,0.00,,---,0.03,VWS V14.01,2013-04-15 14:41:00,
2013-04-15 09:46:00,30.9,29.4,29.46,ESE,121,0.0,14.0,94,0.00,,---,0.03,VWS V14.01,2013-04-15 14:46:00,
2013-04-15 09:52:00,30.9,29.4,29.46,ESE,105,4.0,14.0,94,0.00,,---,0.03,VWS V14.01,2013-04-15 14:52:00,
2013-04-15 09:57:00,30.8,29.3,29.46,ENE,66,5.0,14.0,94,0.00,,---,0.03,VWS V14.01,2013-04-15 14:57:00,
2013-04-15 10:03:00,30.8,29.3,29.47,ESE,114,5.0,5.0,94,0.00,,---,0.03,VWS V14.01,2013-04-15 15:03:00,
2013-04-15 10:08:00,30.8,29.3,29.47,SE,130,4.0,7.0,94,0.00,,---,0.03,VWS V14.01,2013-04-15 15:08:00,
2013-04-15 10:13:00,30.7,29.2,29.47,East,98,3.0,9.0,94,0.00,,---,0.03,VWS V14.01,2013-04-15 15:13:00,
2013-04-15 10:18:00,30.7,29.2,29.46,ESE,116,5.0,9.0,94,0.00,,---,0.03,VWS V14.01,2013-04-15 15:18:00,
2013-04-15 10:23:00,30.6,29.1,29.46,SE,134,0.0,9.0,94,0.00,,---,0.03,VWS V14.01,2013-04-15 15:23:00,
2013-04-15 10:28:00,30.9,29.4,29.46,SE,134,0.0,9.0,94,0.00,,---,0.03,VWS V14.01,2013-04-15 15:28:00,
2013-04-15 10:33:00,31.4,30.1,29.46,ESE,120,1.0,5.0,95,0.00,,---,0.03,VWS V14.01,2013-04-15 15:33:00,
2013-04-15 10:39:00,31.6,30.1,29.46,SSE,152,0.0,6.0,94,0.00,,---,0.03,VWS V14.01,2013-04-15 15:39:00,
2013-04-15 10:44:00,31.7,30.2,29.46,SE,140,0.0,6.0,94,0.00,,---,0.03,VWS V14.01,2013-04-15 15:44:00,
2013-04-15 10:49:00,32.1,30.6,29.46,SSE,150,3.0,6.0,94,0.00,,---,0.03,VWS V14.01,2013-04-15 15:49:00,
2013-04-15 10:54:00,32.3,30.8,29.46,ESE,122,0.0,10.0,94,0.00,,---,0.03,VWS V14.01,2013-04-15 15:54:00,
2013-04-15 10:59:00,32.5,31.0,29.46,SE,144,4.0,10.0,94,0.00,,---,0.03,VWS V14.01,2013-04-15 15:59:00,
2013-04-15 11:04:00,32.5,31.0,29.46,SE,134,0.0,10.0,94,0.00,,---,0.03,VWS V14.01,2013-04-15 16:04:00,
2013-04-15 11:09:00,32.7,30.9,29.46,SSE,167,3.0,10.0,93,0.00,,---,0.03,VWS V14.01,2013-04-15 16:09:00,
2013-04-15 11:15:00,32.9,31.1,29.46,South,188,2.0,10.0,93,0.00,,---,0.03,VWS V14.01,2013-04-15 16:15:00,
2013-04-15 11:20:00,32.9,30.8,29.46,South,170,3.0,10.0,92,0.00,,---,0.03,VWS V14.01,2013-04-15 16:20:00,
2013-04-15 11:25:00,33.0,30.9,29.46,SSE,163,3.0,10.0,92,0.00,,---,0.03,VWS V14.01,2013-04-15 16:25:00,
2013-04-15 11:30:00,33.1,30.8,29.46,SSE,150,3.0,10.0,91,0.00,,---,0.03,VWS V14.01,2013-04-15 16:30:00,
2013-04-15 11:35:00,33.2,30.9,29.46,SSE,158,2.0,6.0,91,0.00,,---,0.03,VWS V14.01,2013-04-15 16:35:00,
2013-04-15 11:40:00,33.5,30.9,29.46,South,182,3.0,9.0,90,0.00,,---,0.03,VWS V14.01,2013-04-15 16:40:00,
2013-04-15 11:46:00,33.7,30.8,29.46,South,178,3.0,9.0,89,0.00,,---,0.03,VWS V14.01,2013-04-15 16:46:00,
2013-04-15 11:52:00,33.4,30.0,29.46,SSE,157,4.0,9.0,87,0.00,,---,0.03,VWS V14.01,2013-04-15 16:52:00,
2013-04-15 11:58:00,32.9,29.7,29.46,South,171,2.0,11.0,88,0.00,,---,0.03,VWS V14.01,2013-04-15 16:58:00,
2013-04-15 12:03:00,32.6,29.2,29.47,South,169,6.0,13.0,87,0.00,,---,0.03,VWS V14.01,2013-04-15 17:03:00,
2013-04-15 12:08:00,32.4,29.2,29.47,South,191,4.0,13.0,88,0.00,,---,0.03,VWS V14.01,2013-04-15 17:08:00,
2013-04-15 12:13:00,32.5,29.6,29.47,South,182,2.0,13.0,89,0.00,,---,0.03,VWS V14.01,2013-04-15 17:13:00,
2013-04-15 12:19:00,32.7,29.5,29.47,South,180,5.0,13.0,88,0.00,,---,0.03,VWS V14.01,2013-04-15 17:19:00,
2013-04-15 12:21:00,32.6,29.5,29.47,SSW,200,1.0,13.0,88,0.00,,---,0.03,VWS V14.01,2013-04-15 17:21:00,
2013-04-15 12:22:00,32.7,29.5,29.47,SSE,167,4.0,13.0,88,0.00,,---,0.03,VWS V14.01,2013-04-15 17:22:00,
2013-04-15 12:25:00,32.7,29.5,29.47,South,170,2.0,13.0,88,0.00,,---,0.03,VWS V14.01,2013-04-15 17:25:00,
2013-04-15 12:28:00,32.8,29.6,29.47,SSE,157,1.0,13.0,88,0.00,,---,0.03,VWS V14.01,2013-04-15 17:28:00,
2013-04-15 12:33:00,33.1,29.7,29.47,South,189,5.0,9.0,87,0.00,,---,0.03,VWS V14.01,2013-04-15 17:33:00,
2013-04-15 12:38:00,33.3,29.3,29.47,SSE,165,3.0,10.0,85,0.00,,---,0.03,VWS V14.01,2013-04-15 17:38:00,
2013-04-15 12:43:00,33.4,29.4,29.47,SSE,165,4.0,10.0,85,0.00,,---,0.03,VWS V14.01,2013-04-15 17:43:00,
2013-04-15 12:48:00,33.3,29.3,29.48,SW,218,3.0,10.0,85,0.00,,---,0.03,VWS V14.01,2013-04-15 17:48:00,
2013-04-15 12:53:00,33.0,28.7,29.48,SW,221,5.0,13.0,84,0.00,,---,0.03,VWS V14.01,2013-04-15 17:53:00,
2013-04-15 12:59:00,32.7,28.7,29.48,South,186,3.0,13.0,85,0.00,,---,0.03,VWS V14.01,2013-04-15 17:59:00,
2013-04-15 13:04:00,32.6,29.2,29.49,SSW,194,4.0,12.0,87,0.00,,---,0.03,VWS V14.01,2013-04-15 18:04:00,
2013-04-15 13:09:00,32.5,29.1,29.49,SSE,161,9.0,12.0,87,0.00,,---,0.03,VWS V14.01,2013-04-15 18:09:00,
2013-04-15 13:14:00,32.5,28.8,29.49,SSE,157,4.0,12.0,86,0.00,,---,0.03,VWS V14.01,2013-04-15 18:14:00,
2013-04-15 13:19:00,32.6,28.6,29.49,SSW,204,4.0,12.0,85,0.00,,---,0.03,VWS V14.01,2013-04-15 18:19:00,
2013-04-15 13:24:00,32.4,28.4,29.49,South,171,3.0,14.0,85,0.00,,---,0.03,VWS V14.01,2013-04-15 18:24:00,
2013-04-15 13:29:00,32.3,28.0,29.49,SSE,163,2.0,14.0,84,0.00,,---,0.03,VWS V14.01,2013-04-15 18:29:00,
2013-04-15 13:30:00,32.3,28.3,29.49,SSE,153,2.0,14.0,85,0.00,,---,0.03,VWS V14.01,2013-04-15 18:30:00,
2013-04-15 13:31:00,32.2,28.2,29.49,SSE,159,2.0,14.0,85,0.00,,---,0.03,VWS V14.01,2013-04-15 18:31:00,
2013-04-15 13:36:00,32.3,28.6,29.49,SSE,159,5.0,12.0,86,0.00,,---,0.03,VWS V14.01,2013-04-15 18:36:00,
2013-04-15 13:42:00,32.3,28.9,29.49,SW,219,5.0,13.0,87,0.00,,---,0.03,VWS V14.01,2013-04-15 18:42:00,
2013-04-15 13:47:00,32.4,29.2,29.49,SSW,200,9.0,13.0,88,0.00,,---,0.03,VWS V14.01,2013-04-15 18:47:00,
2013-04-15 13:53:00,32.3,28.9,29.49,SSW,207,5.0,13.0,87,0.00,,---,0.03,VWS V14.01,2013-04-15 18:53:00,
2013-04-15 13:58:00,32.3,29.1,29.49,South,178,3.0,13.0,88,0.00,,---,0.03,VWS V14.01,2013-04-15 18:58:00,
2013-04-15 14:03:00,32.4,29.5,29.50,South,187,2.0,5.0,89,0.00,,---,0.03,VWS V14.01,2013-04-15 19:03:00,
2013-04-15 14:08:00,32.0,28.9,29.50,SW,215,3.0,9.0,88,0.00,,---,0.03,VWS V14.01,2013-04-15 19:08:00,
2013-04-15 14:14:00,31.7,28.8,29.50,SSE,165,3.0,13.0,89,0.00,,---,0.03,VWS V14.01,2013-04-15 19:14:00,
2013-04-15 14:19:00,31.5,28.9,29.51,South,185,6.0,13.0,90,0.00,,---,0.03,VWS V14.01,2013-04-15 19:19:00,
2013-04-15 14:24:00,31.5,29.2,29.51,SSW,199,6.0,13.0,91,0.01,,---,0.04,VWS V14.01,2013-04-15 19:24:00,
2013-04-15 14:29:00,31.6,29.0,29.51,SW,223,4.0,13.0,90,0.01,,---,0.04,VWS V14.01,2013-04-15 19:29:00,
2013-04-15 14:34:00,31.6,29.0,29.50,South,180,5.0,7.0,90,0.01,,---,0.04,VWS V14.01,2013-04-15 19:34:00,
2013-04-15 14:39:00,31.5,28.6,29.50,SSW,204,5.0,8.0,89,0.01,,---,0.04,VWS V14.01,2013-04-15 19:39:00,
2013-04-15 14:44:00,31.1,28.0,29.50,South,191,4.0,15.0,88,0.01,,---,0.04,VWS V14.01,2013-04-15 19:44:00,
2013-04-15 14:50:00,31.1,28.0,29.51,SSW,196,5.0,15.0,88,0.01,,---,0.04,VWS V14.01,2013-04-15 19:50:00,
2013-04-15 14:55:00,31.3,28.2,29.51,South,177,4.0,15.0,88,0.01,,---,0.04,VWS V14.01,2013-04-15 19:55:00,
2013-04-15 14:57:00,31.3,28.2,29.51,SW,223,5.0,15.0,88,0.01,,---,0.04,VWS V14.01,2013-04-15 19:57:00,
2013-04-15 14:58:00,31.3,28.2,29.51,South,173,5.0,15.0,88,0.01,,---,0.04,VWS V14.01,2013-04-15 19:58:00,
2013-04-15 15:02:00,31.4,28.0,29.51,South,171,5.0,15.0,87,0.01,,---,0.04,VWS V14.01,2013-04-15 20:02:00,
2013-04-15 15:03:00,31.4,28.0,29.51,SSW,203,5.0,15.0,87,0.01,,---,0.04,VWS V14.01,2013-04-15 20:03:00,
2013-04-15 15:04:00,31.4,28.0,29.51,South,180,1.0,15.0,87,0.01,,---,0.04,VWS V14.01,2013-04-15 20:04:00,
2013-04-15 15:10:00,31.4,27.7,29.51,SW,221,5.0,15.0,86,0.01,,---,0.04,VWS V14.01,2013-04-15 20:10:00,
2013-04-15 15:15:00,31.3,27.9,29.51,SW,214,10.0,15.0,87,0.01,,---,0.04,VWS V14.01,2013-04-15 20:15:00,
2013-04-15 15:20:00,31.2,27.8,29.53,South,176,3.0,15.0,87,0.01,,---,0.04,VWS V14.01,2013-04-15 20:20:00,
2013-04-15 15:25:00,31.3,27.9,29.53,SW,226,4.0,15.0,87,0.01,,---,0.04,VWS V14.01,2013-04-15 20:25:00,
2013-04-15 15:30:00,31.2,27.8,29.53,SSW,198,3.0,15.0,87,0.01,,---,0.04,VWS V14.01,2013-04-15 20:30:00,
2013-04-15 15:35:00,31.1,28.0,29.53,South,182,3.0,12.0,88,0.00,,---,0.04,VWS V14.01,2013-04-15 20:35:00,
2013-04-15 15:41:00,31.4,28.3,29.53,South,189,5.0,13.0,88,0.00,,---,0.04,VWS V14.01,2013-04-15 20:41:00,
2013-04-15 15:46:00,31.4,28.3,29.54,South,191,3.0,16.0,88,0.00,,---,0.04,VWS V14.01,2013-04-15 20:46:00,
2013-04-15 15:51:00,31.5,28.4,29.54,SSW,192,1.0,16.0,88,0.00,,---,0.04,VWS V14.01,2013-04-15 20:51:00,
2013-04-15 15:56:00,31.6,28.5,29.54,South,170,6.0,16.0,88,0.00,,---,0.04,VWS V14.01,2013-04-15 20:56:00,
2013-04-15 16:01:00,31.8,28.9,29.54,South,186,3.0,4.0,89,0.00,,---,0.04,VWS V14.01,2013-04-15 21:01:00,
2013-04-15 16:06:00,32.0,29.1,29.54,South,190,3.0,7.0,89,0.00,,---,0.04,VWS V14.01,2013-04-15 21:06:00,
2013-04-15 16:12:00,32.2,29.3,29.54,WSW,246,5.0,7.0,89,0.00,,---,0.04,VWS V14.01,2013-04-15 21:12:00,
2013-04-15 16:17:00,32.5,29.6,29.53,South,170,11.0,11.0,89,0.00,,---,0.04,VWS V14.01,2013-04-15 21:17:00,
2013-04-15 16:22:00,32.5,29.4,29.53,SW,219,1.0,12.0,88,0.00,,---,0.04,VWS V14.01,2013-04-15 21:22:00,
2013-04-15 16:27:00,32.6,29.5,29.53,SSW,211,1.0,15.0,88,0.00,,---,0.04,VWS V14.01,2013-04-15 21:27:00,
2013-04-15 16:32:00,32.5,29.1,29.54,SSW,197,3.0,13.0,87,0.00,,---,0.04,VWS V14.01,2013-04-15 21:32:00,
2013-04-15 16:37:00,32.6,29.7,29.54,SSE,163,5.0,13.0,89,0.00,,---,0.04,VWS V14.01,2013-04-15 21:37:00,
2013-04-15 16:43:00,32.5,29.6,29.54,SSW,213,6.0,13.0,89,0.00,,---,0.04,VWS V14.01,2013-04-15 21:43:00,
2013-04-15 16:48:00,32.4,29.5,29.54,SW,216,3.0,13.0,89,0.00,,---,0.04,VWS V14.01,2013-04-15 21:48:00,
2013-04-15 16:53:00,32.4,29.5,29.54,SSW,208,5.0,13.0,89,0.00,,---,0.04,VWS V14.01,2013-04-15 21:53:00,
2013-04-15 16:58:00,32.6,29.7,29.54,SSW,201,3.0,13.0,89,0.00,,---,0.04,VWS V14.01,2013-04-15 21:58:00,
2013-04-15 17:04:00,32.7,29.8,29.54,SSE,161,2.0,7.0,89,0.00,,---,0.04,VWS V14.01,2013-04-15 22:04:00,
2013-04-15 17:09:00,32.8,29.9,29.54,South,186,3.0,7.0,89,0.00,,---,0.04,VWS V14.01,2013-04-15 22:09:00,
2013-04-15 17:14:00,32.7,29.8,29.54,SW,216,8.0,9.0,89,0.00,,---,0.04,VWS V14.01,2013-04-15 22:14:00,
2013-04-15 17:19:00,32.5,29.6,29.55,SSW,211,4.0,10.0,89,0.00,,---,0.04,VWS V14.01,2013-04-15 22:19:00,
2013-04-15 17:25:00,32.6,29.7,29.55,SSW,193,0.0,10.0,89,0.00,,---,0.04,VWS V14.01,2013-04-15 22:25:00,
2013-04-15 17:30:00,32.8,29.9,29.55,South,181,2.0,10.0,89,0.00,,---,0.04,VWS V14.01,2013-04-15 22:30:00,
2013-04-15 17:35:00,32.9,29.7,29.55,South,182,3.0,11.0,88,0.00,,---,0.04,VWS V14.01,2013-04-15 22:35:00,
2013-04-15 17:40:00,32.8,29.6,29.55,South,171,5.0,11.0,88,0.00,,---,0.04,VWS V14.01,2013-04-15 22:40:00,
2013-04-15 17:45:00,32.7,29.8,29.55,SSW,209,7.0,11.0,89,0.00,,---,0.04,VWS V14.01,2013-04-15 22:45:00,
2013-04-15 17:50:00,32.7,29.8,29.55,South,182,1.0,11.0,89,0.00,,---,0.04,VWS V14.01,2013-04-15 22:50:00,
2013-04-15 17:55:00,32.6,29.7,29.55,SW,230,2.0,11.0,89,0.00,,---,0.04,VWS V14.01,2013-04-15 22:55:00,
2013-04-15 18:00:00,32.6,29.7,29.55,SW,235,2.0,11.0,89,0.00,,---,0.04,VWS V14.01,2013-04-15 23:00:00,
2013-04-15 18:05:00,32.6,29.7,29.55,SW,219,4.0,6.0,89,0.00,,---,0.04,VWS V14.01,2013-04-15 23:05:00,
2013-04-15 18:11:00,32.5,29.6,29.55,SSW,201,3.0,8.0,89,0.00,,---,0.04,VWS V14.01,2013-04-15 23:11:00,
2013-04-15 18:16:00,32.5,29.6,29.56,SW,229,3.0,13.0,89,0.00,,---,0.04,VWS V14.01,2013-04-15 23:16:00,
2013-04-15 18:21:00,32.5,29.6,29.56,SSW,206,2.0,13.0,89,0.00,,---,0.04,VWS V14.01,2013-04-15 23:21:00,
2013-04-15 18:27:00,32.4,29.5,29.56,SW,226,6.0,13.0,89,0.00,,---,0.04,VWS V14.01,2013-04-15 23:27:00,
2013-04-15 18:32:00,32.3,29.7,29.57,SW,214,0.0,2.0,90,0.00,,---,0.04,VWS V14.01,2013-04-15 23:32:00,
2013-04-15 18:37:00,32.4,29.8,29.57,SW,219,1.0,5.0,90,0.00,,---,0.04,VWS V14.01,2013-04-15 23:37:00,
2013-04-15 18:42:00,32.4,29.8,29.57,SSW,204,1.0,5.0,90,0.00,,---,0.04,VWS V14.01,2013-04-15 23:42:00,
2013-04-15 18:48:00,32.4,29.8,29.57,SSW,196,3.0,5.0,90,0.00,,---,0.04,VWS V14.01,2013-04-15 23:48:00,
2013-04-15 18:53:00,32.4,29.8,29.57,SSE,152,2.0,5.0,90,0.00,,---,0.04,VWS V14.01,2013-04-15 23:53:00,
2013-04-15 18:58:00,32.3,29.7,29.57,South,170,0.0,5.0,90,0.00,,---,0.04,VWS V14.01,2013-04-15 23:58:00,
2013-04-15 19:03:00,32.1,29.8,29.57,SW,221,1.0,6.0,91,0.00,,---,0.04,VWS V14.01,2013-04-16 00:03:00,
2013-04-15 19:08:00,32.0,29.7,29.57,SW,216,3.0,6.0,91,0.00,,---,0.04,VWS V14.01,2013-04-16 00:08:00,
2013-04-15 19:14:00,31.9,29.8,29.57,SW,218,0.0,6.0,92,0.00,,---,0.04,VWS V14.01,2013-04-16 00:14:00,
2013-04-15 19:19:00,31.9,29.8,29.57,SW,215,0.0,6.0,92,0.00,,---,0.04,VWS V14.01,2013-04-16 00:19:00,
2013-04-15 19:24:00,31.9,29.8,29.57,SSW,211,5.0,6.0,92,0.00,,---,0.04,VWS V14.01,2013-04-16 00:24:00,
2013-04-15 19:29:00,31.9,29.8,29.57,SSW,211,2.0,7.0,92,0.00,,---,0.04,VWS V14.01,2013-04-16 00:29:00,
2013-04-15 19:34:00,31.9,29.6,29.58,SW,229,0.0,7.0,91,0.00,,---,0.04,VWS V14.01,2013-04-16 00:34:00,
2013-04-15 19:39:00,31.8,29.8,29.58,SW,228,0.0,7.0,92,0.00,,---,0.04,VWS V14.01,2013-04-16 00:39:00,
2013-04-15 19:44:00,31.7,29.6,29.58,SW,228,2.0,7.0,92,0.00,,---,0.04,VWS V14.01,2013-04-16 00:44:00,
2013-04-15 19:49:00,31.7,29.6,29.59,SSW,195,0.0,9.0,92,0.00,,---,0.04,VWS V14.01,2013-04-16 00:49:00,
2013-04-15 19:54:00,31.7,29.6,29.59,SSW,207,5.0,9.0,92,0.00,,---,0.04,VWS V14.01,2013-04-16 00:54:00,
2013-04-15 19:59:00,31.7,29.6,29.59,SSW,192,1.0,9.0,92,0.00,,---,0.04,VWS V14.01,2013-04-16 00:59:00,
2013-04-15 20:05:00,31.6,29.5,29.59,SW,227,1.0,6.0,92,0.00,,---,0.04,VWS V14.01,2013-04-16 01:05:00,
2013-04-15 20:10:00,31.6,29.5,29.59,SW,223,1.0,9.0,92,0.00,,---,0.04,VWS V14.01,2013-04-16 01:10:00,
2013-04-15 20:15:00,31.5,29.7,29.60,SW,214,0.0,9.0,93,0.00,,---,0.04,VWS V14.01,2013-04-16 01:15:00,
2013-04-15 20:20:00,31.5,29.7,29.60,SSW,205,2.0,9.0,93,0.00,,---,0.04,VWS V14.01,2013-04-16 01:20:00,
2013-04-15 20:25:00,31.5,29.7,29.60,SW,219,2.0,9.0,93,0.00,,---,0.04,VWS V14.01,2013-04-16 01:25:00,
2013-04-15 20:30:00,31.4,29.6,29.60,SW,223,3.0,9.0,93,0.00,,---,0.04,VWS V14.01,2013-04-16 01:30:00,
2013-04-15 20:36:00,31.4,29.6,29.60,SW,229,6.0,6.0,93,0.00,,---,0.04,VWS V14.01,2013-04-16 01:36:00,
2013-04-15 20:41:00,31.4,29.6,29.60,SW,222,0.0,6.0,93,0.00,,---,0.04,VWS V14.01,2013-04-16 01:41:00,
2013-04-15 20:46:00,31.3,29.5,29.61,SW,222,2.0,6.0,93,0.00,,---,0.04,VWS V14.01,2013-04-16 01:46:00,
2013-04-15 20:52:00,31.2,29.4,29.61,SW,222,2.0,6.0,93,0.00,,---,0.04,VWS V14.01,2013-04-16 01:52:00,
2013-04-15 20:57:00,31.2,29.7,29.61,SW,219,2.0,6.0,94,0.00,,---,0.04,VWS V14.01,2013-04-16 01:57:00,
2013-04-15 21:02:00,31.2,29.7,29.62,SW,217,0.0,3.0,94,0.00,,---,0.04,VWS V14.01,2013-04-16 02:02:00,
2013-04-15 21:07:00,31.2,29.7,29.62,SW,217,2.0,4.0,94,0.00,,---,0.04,VWS V14.01,2013-04-16 02:07:00,
2013-04-15 21:12:00,31.3,29.8,29.62,WSW,237,2.0,7.0,94,0.00,,---,0.04,VWS V14.01,2013-04-16 02:12:00,
2013-04-15 21:18:00,31.4,29.9,29.63,SW,216,2.0,8.0,94,0.00,,---,0.04,VWS V14.01,2013-04-16 02:18:00,
2013-04-15 21:23:00,31.4,29.9,29.63,SSW,209,5.0,8.0,94,0.00,,---,0.04,VWS V14.01,2013-04-16 02:23:00,
2013-04-15 21:28:00,31.4,29.9,29.63,SW,228,2.0,8.0,94,0.00,,---,0.04,VWS V14.01,2013-04-16 02:28:00,
2013-04-15 21:33:00,31.5,30.0,29.64,SW,233,2.0,6.0,94,0.00,,---,0.04,VWS V14.01,2013-04-16 02:33:00,
2013-04-15 21:38:00,31.5,30.0,29.64,SW,227,1.0,6.0,94,0.00,,---,0.04,VWS V14.01,2013-04-16 02:38:00,
2013-04-15 21:44:00,31.5,30.0,29.64,WSW,244,3.0,8.0,94,0.00,,---,0.04,VWS V14.01,2013-04-16 02:44:00,
2013-04-15 21:49:00,31.5,30.0,29.63,SSW,210,3.0,8.0,94,0.00,,---,0.04,VWS V14.01,2013-04-16 02:49:00,
2013-04-15 21:54:00,31.5,30.0,29.63,SW,234,2.0,8.0,94,0.00,,---,0.04,VWS V14.01,2013-04-16 02:54:00,
2013-04-15 21:59:00,31.5,30.0,29.63,WSW,248,2.0,8.0,94,0.00,,---,0.04,VWS V14.01,2013-04-16 02:59:00,
2013-04-15 22:04:00,31.5,30.0,29.63,West,265,7.0,10.0,94,0.00,,---,0.04,VWS V14.01,2013-04-16 03:04:00,
2013-04-15 22:10:00,31.5,30.0,29.63,SW,232,5.0,11.0,94,0.00,,---,0.04,VWS V14.01,2013-04-16 03:10:00,
2013-04-15 22:15:00,31.5,30.0,29.63,WSW,252,9.0,11.0,94,0.00,,---,0.04,VWS V14.01,2013-04-16 03:15:00,
2013-04-15 22:20:00,31.4,29.9,29.64,West,278,6.0,11.0,94,0.00,,---,0.04,VWS V14.01,2013-04-16 03:20:00,
2013-04-15 22:25:00,31.2,29.7,29.64,WNW,290,2.0,11.0,94,0.00,,---,0.04,VWS V14.01,2013-04-16 03:25:00,
2013-04-15 22:30:00,31.1,29.3,29.64,West,275,2.0,11.0,93,0.00,,---,0.04,VWS V14.01,2013-04-16 03:30:00,
2013-04-15 22:36:00,31.1,29.6,29.64,West,273,2.0,5.0,94,0.00,,---,0.04,VWS V14.01,2013-04-16 03:36:00,
2013-04-15 22:41:00,31.0,29.5,29.64,West,261,0.0,5.0,94,0.00,,---,0.04,VWS V14.01,2013-04-16 03:41:00,
2013-04-15 22:45:00,31.0,29.5,29.64,West,261,4.0,7.0,94,0.00,,---,0.04,VWS V14.01,2013-04-16 03:45:00,
2013-04-15 22:51:00,30.8,29.3,29.64,West,263,2.0,7.0,94,0.00,,---,0.04,VWS V14.01,2013-04-16 03:51:00,
2013-04-15 22:56:00,30.7,28.9,29.64,West,267,2.0,7.0,93,0.00,,---,0.04,VWS V14.01,2013-04-16 03:56:00,
2013-04-15 23:00:00,30.5,28.7,29.64,WSW,258,2.0,7.0,93,0.00,,---,0.04,VWS V14.01,2013-04-16 04:00:00,
2013-04-15 23:03:00,30.4,28.9,29.64,WSW,254,1.0,4.0,94,0.00,,---,0.04,VWS V14.01,2013-04-16 04:03:00,
2013-04-15 23:05:00,30.3,28.8,29.64,WSW,255,3.0,5.0,94,0.00,,---,0.04,VWS V14.01,2013-04-16 04:05:00,
2013-04-15 23:10:00,30.1,28.6,29.64,SW,227,5.0,5.0,94,0.00,,---,0.04,VWS V14.01,2013-04-16 04:10:00,
2013-04-15 23:15:00,30.1,28.6,29.65,SW,236,3.0,7.0,94,0.00,,---,0.04,VWS V14.01,2013-04-16 04:15:00,
2013-04-15 23:21:00,30.2,28.7,29.65,SW,232,4.0,9.0,94,0.00,,---,0.04,VWS V14.01,2013-04-16 04:21:00,
2013-04-15 23:26:00,30.3,28.8,29.65,WSW,247,2.0,9.0,94,0.00,,---,0.04,VWS V14.01,2013-04-16 04:26:00,
2013-04-15 23:31:00,30.4,29.1,29.65,WSW,243,2.0,4.0,95,0.00,,---,0.04,VWS V14.01,2013-04-16 04:31:00,
2013-04-15 23:37:00,30.3,29.0,29.65,WSW,258,2.0,5.0,95,0.00,,---,0.04,VWS V14.01,2013-04-16 04:37:00,
2013-04-15 23:42:00,30.4,29.1,29.65,WSW,256,3.0,6.0,95,0.00,,---,0.04,VWS V14.01,2013-04-16 04:42:00,
2013-04-15 23:47:00,30.5,29.2,29.65,West,263,1.0,6.0,95,0.00,,---,0.04,VWS V14.01,2013-04-16 04:47:00,
2013-04-15 23:52:00,30.6,29.3,29.65,WSW,257,3.0,7.0,95,0.00,,---,0.04,VWS V14.01,2013-04-16 04:52:00,
2013-04-15 23:57:00,30.7,29.4,29.65,West,259,5.0,7.0,95,0.00,,---,0.04,VWS V14.01,2013-04-16 04:57:00,